createdAt,value
2023-04-18T00:01:51.608Z,10.92
2023-04-18T00:04:19.329Z,10.79
2023-04-18T00:06:47.477Z,10.82
2023-04-18T00:09:14.100Z,10.74
2023-04-18T00:11:41.272Z,10.57
2023-04-18T00:14:08.505Z,10.52
2023-04-18T00:16:35.094Z,10.76
2023-04-18T00:19:04.534Z,10.69
2023-04-18T00:21:32.964Z,10.51
2023-04-18T00:23:59.727Z,10.35
2023-04-18T00:26:27.661Z,10.31
2023-04-18T00:28:54.164Z,10.02
2023-04-18T00:31:20.765Z,10.04
2023-04-18T00:33:47.422Z,10.21
2023-04-18T00:36:13.925Z,10.23
2023-04-18T00:38:40.753Z,10.26
2023-04-18T00:41:07.422Z,10.19
2023-04-18T00:43:35.106Z,10.16
2023-04-18T00:46:01.744Z,10.26
2023-04-18T00:48:29.723Z,10.14
2023-04-18T00:50:57.181Z,10.25
2023-04-18T00:53:24.198Z,10.13
2023-04-18T00:55:51.398Z,9.91
2023-04-18T00:58:17.955Z,10.10
2023-04-18T01:00:44.550Z,9.89
2023-04-18T01:03:11.318Z,9.75
2023-04-18T01:05:38.112Z,9.90
2023-04-18T01:08:05.473Z,9.95
2023-04-18T01:10:32.360Z,9.97
2023-04-18T01:13:19.527Z,9.77
2023-04-18T01:15:48.585Z,9.77
2023-04-18T01:18:20.697Z,9.58
2023-04-18T01:20:50.118Z,9.49
2023-04-18T01:23:18.427Z,9.58
2023-04-18T01:25:48.777Z,9.57
2023-04-18T01:28:15.959Z,9.85
2023-04-18T01:30:43.987Z,9.96
2023-04-18T01:33:13.156Z,9.81
2023-04-18T01:35:39.854Z,9.75
2023-04-18T01:38:06.439Z,9.73
2023-04-18T01:40:35.400Z,9.71
2023-04-18T01:43:04.090Z,9.74
2023-04-18T01:45:31.997Z,9.52
2023-04-18T01:47:59.050Z,9.51
2023-04-18T01:50:26.021Z,9.34
2023-04-18T01:52:52.638Z,9.34
2023-04-18T01:55:19.316Z,9.38
2023-04-18T01:57:47.105Z,9.37
2023-04-18T02:00:14.973Z,9.45
2023-04-18T02:02:43.652Z,9.39
2023-04-18T02:05:10.852Z,9.37
2023-04-18T02:07:37.903Z,9.36
2023-04-18T02:10:04.808Z,9.41
2023-04-18T02:12:31.960Z,9.26
2023-04-18T02:14:58.467Z,9.17
2023-04-18T02:17:25.937Z,9.10
2023-04-18T02:19:52.525Z,9.33
2023-04-18T02:22:19.293Z,9.28
2023-04-18T02:24:45.950Z,9.21
2023-04-18T02:27:12.747Z,9.30
2023-04-18T02:29:39.518Z,9.14
2023-04-18T02:32:06.491Z,9.18
2023-04-18T02:34:35.083Z,9.14
2023-04-18T02:37:02.044Z,9.22
2023-04-18T02:39:28.621Z,8.93
2023-04-18T02:41:55.381Z,8.87
2023-04-18T02:44:22.573Z,9.02
2023-04-18T02:46:50.137Z,9.09
2023-04-18T02:49:16.658Z,8.93
2023-04-18T02:51:43.217Z,8.69
2023-04-18T02:54:09.907Z,8.83
2023-04-18T02:56:40.076Z,8.91
2023-04-18T02:59:07.193Z,8.86
2023-04-18T03:01:35.135Z,8.69
2023-04-18T03:04:01.732Z,8.77
2023-04-18T03:06:28.270Z,8.97
2023-04-18T03:08:55.672Z,8.93
2023-04-18T03:11:23.384Z,8.64
2023-04-18T03:13:49.964Z,8.69
2023-04-18T03:16:16.833Z,8.51
2023-04-18T03:18:43.634Z,8.62
2023-04-18T03:21:10.572Z,8.66
2023-04-18T03:23:37.438Z,8.48
2023-04-18T03:26:06.760Z,8.78
2023-04-18T03:28:33.564Z,8.58
2023-04-18T03:31:00.916Z,8.82
2023-04-18T03:33:28.822Z,8.30
2023-04-18T03:35:57.114Z,8.39
2023-04-18T03:38:23.707Z,8.47
2023-04-18T03:40:51.049Z,8.57
2023-04-18T03:43:19.910Z,8.54
2023-04-18T03:45:47.649Z,8.29
2023-04-18T03:48:14.578Z,8.41
2023-04-18T03:50:41.250Z,8.54
2023-04-18T03:53:07.790Z,8.44
2023-04-18T03:55:36.683Z,8.47
2023-04-18T03:58:03.628Z,8.34
2023-04-18T04:00:30.778Z,8.65
2023-04-18T04:02:57.570Z,8.67
2023-04-18T04:05:24.334Z,8.67
2023-04-18T04:07:51.029Z,8.64
2023-04-18T04:10:17.642Z,8.44
2023-04-18T04:12:44.313Z,8.28
2023-04-18T04:15:12.432Z,8.54
2023-04-18T04:17:39.375Z,8.35
2023-04-18T04:20:07.461Z,8.48
2023-04-18T04:22:36.778Z,8.49
2023-04-18T04:25:04.708Z,8.34
2023-04-18T04:27:33.969Z,8.09
2023-04-18T04:30:02.754Z,8.44
2023-04-18T04:32:29.376Z,8.26
2023-04-18T04:34:56.373Z,8.52
2023-04-18T04:37:24.762Z,8.43
2023-04-18T04:39:52.239Z,8.47
2023-04-18T04:42:19.698Z,8.42
2023-04-18T04:44:46.870Z,8.42
2023-04-18T04:47:14.652Z,8.34
2023-04-18T04:49:41.360Z,8.38
2023-04-18T04:52:07.874Z,8.45
2023-04-18T04:54:35.676Z,8.54
2023-04-18T04:57:02.404Z,8.43
2023-04-18T04:59:29.212Z,8.45
2023-04-18T05:01:57.140Z,8.35
2023-04-18T05:04:25.384Z,8.38
2023-04-18T05:06:52.180Z,8.53
2023-04-18T05:09:19.232Z,8.74
2023-04-18T05:11:47.636Z,8.70
2023-04-18T05:14:16.003Z,8.81
2023-04-18T05:16:42.794Z,8.78
2023-04-18T05:19:09.359Z,9.18
2023-04-18T05:21:37.174Z,8.85
2023-04-18T05:24:03.783Z,9.03
2023-04-18T05:26:30.405Z,8.76
2023-04-18T05:28:57.401Z,8.95
2023-04-18T05:31:24.086Z,8.59
2023-04-18T05:33:50.670Z,8.81
2023-04-18T05:36:17.313Z,8.70
2023-04-18T05:38:43.874Z,9.02
2023-04-18T05:41:10.554Z,9.39
2023-04-18T05:43:37.220Z,9.01
2023-04-18T05:46:03.875Z,9.10
2023-04-18T05:48:30.480Z,9.14
2023-04-18T05:50:57.993Z,9.66
2023-04-18T05:53:24.509Z,9.87
2023-04-18T05:55:51.168Z,9.93
2023-04-18T05:58:17.806Z,9.77
2023-04-18T06:00:44.401Z,9.65
2023-04-18T06:03:11.565Z,9.78
2023-04-18T06:05:38.628Z,9.46
2023-04-18T06:08:05.371Z,9.05
2023-04-18T06:10:31.913Z,9.83
2023-04-18T06:12:58.592Z,9.86
2023-04-18T06:15:25.181Z,9.83
2023-04-18T06:17:51.803Z,10.13
2023-04-18T06:20:18.482Z,10.33
2023-04-18T06:22:45.055Z,10.28
2023-04-18T06:25:12.041Z,10.11
2023-04-18T06:27:38.643Z,10.05
2023-04-18T06:30:07.017Z,10.18
2023-04-18T06:32:34.229Z,10.06
2023-04-18T06:35:00.768Z,10.14
2023-04-18T06:37:27.796Z,9.92
2023-04-18T06:39:54.489Z,10.25
2023-04-18T06:42:22.370Z,10.31
2023-04-18T06:44:49.409Z,10.05
2023-04-18T06:47:16.356Z,10.14
2023-04-18T06:49:42.887Z,10.10
2023-04-18T06:52:09.423Z,10.12
2023-04-18T06:54:36.245Z,9.92
2023-04-18T06:57:03.783Z,10.26
2023-04-18T06:59:31.078Z,10.39
2023-04-18T07:01:57.747Z,10.44
2023-04-18T07:04:25.074Z,10.27
2023-04-18T07:06:51.843Z,10.67
2023-04-18T07:09:18.905Z,10.72
2023-04-18T07:11:45.595Z,10.90
2023-04-18T07:14:12.585Z,11.28
2023-04-18T07:16:40.044Z,11.52
2023-04-18T07:19:06.906Z,11.35
2023-04-18T07:21:33.704Z,11.55
2023-04-18T07:24:00.409Z,11.21
2023-04-18T07:26:27.662Z,11.17
2023-04-18T07:28:54.198Z,10.89
2023-04-18T07:31:21.943Z,10.95
2023-04-18T07:33:48.510Z,10.77
2023-04-18T07:36:15.927Z,11.52
2023-04-18T07:38:42.726Z,12.05
2023-04-18T07:41:09.506Z,11.40
2023-04-18T07:43:36.201Z,11.47
2023-04-18T07:46:03.137Z,11.63
2023-04-18T07:48:29.941Z,11.64
2023-04-18T07:50:56.819Z,11.83
2023-04-18T07:53:24.490Z,11.95
2023-04-18T07:55:51.293Z,11.39
2023-04-18T07:58:17.942Z,11.77
2023-04-18T08:00:45.638Z,12.76
2023-04-18T08:03:13.228Z,13.46
2023-04-18T08:05:42.916Z,13.90
2023-04-18T08:08:11.617Z,14.23
2023-04-18T08:10:38.458Z,13.76
2023-04-18T08:13:06.225Z,13.00
2023-04-18T08:15:33.058Z,13.43
2023-04-18T08:18:00.815Z,13.08
2023-04-18T08:20:27.962Z,13.02
2023-04-18T08:23:05.038Z,13.22
2023-04-18T08:25:33.280Z,13.07
2023-04-18T08:28:00.176Z,13.28
2023-04-18T08:30:26.790Z,12.91
2023-04-18T08:32:53.907Z,13.54
2023-04-18T08:35:21.771Z,13.64
2023-04-18T08:37:48.324Z,13.49
2023-04-18T08:40:15.653Z,13.92
2023-04-18T08:42:45.100Z,14.41
2023-04-18T08:45:14.609Z,14.16
2023-04-18T08:47:42.127Z,15.27
2023-04-18T08:50:10.633Z,15.23
2023-04-18T08:52:40.164Z,15.45
2023-04-18T08:55:07.434Z,14.73
2023-04-18T08:57:35.880Z,15.14
2023-04-18T09:00:08.213Z,14.81
2023-04-18T09:02:39.230Z,15.30
2023-04-18T09:05:27.103Z,15.40
2023-04-18T09:07:55.230Z,15.75
2023-04-18T09:10:33.375Z,15.21
2023-04-18T09:13:03.162Z,14.83
2023-04-18T09:15:30.466Z,15.47
2023-04-18T09:17:59.863Z,15.46
2023-04-18T09:20:30.631Z,15.59
2023-04-18T09:22:57.937Z,15.20
2023-04-18T09:25:35.917Z,15.83
2023-04-18T09:28:21.046Z,15.30
2023-04-18T09:30:48.561Z,16.66
2023-04-18T09:33:15.685Z,17.42
2023-04-18T09:35:42.517Z,18.97
2023-04-18T09:38:10.735Z,19.14
2023-04-18T09:40:37.359Z,18.83
2023-04-18T09:43:18.732Z,17.55
2023-04-18T09:45:48.904Z,17.90
2023-04-18T09:48:15.877Z,17.58
2023-04-18T09:50:45.181Z,17.47
2023-04-18T09:53:14.990Z,17.52
2023-04-18T09:55:42.438Z,17.44
2023-04-18T09:58:10.422Z,16.64
2023-04-18T10:00:38.171Z,16.26
2023-04-18T10:03:09.817Z,16.90
2023-04-18T10:05:39.849Z,16.34
2023-04-18T10:08:06.921Z,16.41
2023-04-18T10:10:34.256Z,16.91
2023-04-18T10:13:02.476Z,17.39
2023-04-18T10:15:30.905Z,18.04
2023-04-18T10:18:14.833Z,17.36
2023-04-18T10:20:42.254Z,17.65
2023-04-18T10:23:30.971Z,18.40
2023-04-18T10:25:58.573Z,18.41
2023-04-18T10:28:26.487Z,17.98
2023-04-18T10:30:54.229Z,17.91
2023-04-18T10:33:36.907Z,17.26
2023-04-18T10:36:08.962Z,17.68
2023-04-18T10:38:39.808Z,18.87
2023-04-18T10:41:23.722Z,20.40
2023-04-18T10:44:13.118Z,22.42
2023-04-18T10:47:03.954Z,22.23
2023-04-18T10:49:33.807Z,24.10
2023-04-18T10:52:01.998Z,24.97
2023-04-18T10:54:47.251Z,25.22
2023-04-18T10:57:13.990Z,23.77
2023-04-18T10:59:48.368Z,23.76
2023-04-18T11:02:30.152Z,21.74
2023-04-18T11:04:58.126Z,20.90
2023-04-18T11:07:42.226Z,22.68
2023-04-18T11:10:09.823Z,21.97
2023-04-18T11:12:39.283Z,21.31
2023-04-18T11:15:15.011Z,19.87
2023-04-18T11:17:41.652Z,19.28
2023-04-18T11:20:12.739Z,19.18
2023-04-18T11:22:46.538Z,18.90
2023-04-18T11:25:13.544Z,18.07
2023-04-18T11:27:45.234Z,18.55
2023-04-18T11:30:14.072Z,18.23
2023-04-18T11:32:41.466Z,18.86
2023-04-18T11:35:09.541Z,19.38
2023-04-18T11:37:40.700Z,18.34
2023-04-18T11:40:11.719Z,18.14
2023-04-18T11:42:41.213Z,18.17
2023-04-18T11:45:15.658Z,18.33
2023-04-18T11:47:43.551Z,17.57
2023-04-18T11:50:12.150Z,18.13
2023-04-18T11:52:41.513Z,17.45
2023-04-18T11:55:21.480Z,17.82
2023-04-18T11:57:54.648Z,18.87
2023-04-18T12:00:35.363Z,18.58
2023-04-18T12:03:07.878Z,18.10
2023-04-18T12:05:39.020Z,18.00
2023-04-18T12:08:13.991Z,18.00
2023-04-18T12:10:48.426Z,17.44
2023-04-18T12:13:15.175Z,18.35
2023-04-18T12:15:47.051Z,18.37
2023-04-18T12:18:15.389Z,18.34
2023-04-18T12:20:52.495Z,18.11
2023-04-18T12:23:37.090Z,18.35
2023-04-18T12:26:14.987Z,18.35
2023-04-18T12:28:45.173Z,18.50
2023-04-18T12:31:11.939Z,18.68
2023-04-18T12:33:38.678Z,18.17
2023-04-18T12:36:06.125Z,18.07
2023-04-18T12:38:32.740Z,17.76
2023-04-18T12:40:59.424Z,17.79
2023-04-18T12:43:26.530Z,17.42
2023-04-18T12:45:55.230Z,17.80
2023-04-18T12:48:22.617Z,17.82
2023-04-18T12:50:49.307Z,17.91
2023-04-18T12:53:16.225Z,18.23
2023-04-18T12:55:42.800Z,18.72
2023-04-18T12:58:09.379Z,18.70
2023-04-18T13:00:35.967Z,18.99
2023-04-18T13:03:02.908Z,18.10
2023-04-18T13:05:32.991Z,17.84
2023-04-18T13:08:12.843Z,17.71
2023-04-18T13:10:43.607Z,17.68
2023-04-18T13:13:11.443Z,17.57
2023-04-18T13:15:38.175Z,17.54
2023-04-18T13:18:06.538Z,17.71
2023-04-18T13:20:34.121Z,17.36
2023-04-18T13:23:02.628Z,17.63
2023-04-18T13:25:29.225Z,17.47
2023-04-18T13:27:56.514Z,17.85
2023-04-18T13:30:23.090Z,17.86
2023-04-18T13:32:50.181Z,17.32
2023-04-18T13:35:16.901Z,17.63
2023-04-18T13:37:43.761Z,17.70
2023-04-18T13:40:11.073Z,17.91
2023-04-18T13:42:38.765Z,18.34
2023-04-18T13:45:06.349Z,18.13
2023-04-18T13:47:33.020Z,17.88
2023-04-18T13:50:00.074Z,18.25
2023-04-18T13:52:28.051Z,18.60
2023-04-18T13:54:56.389Z,18.50
2023-04-18T13:57:24.066Z,18.35
2023-04-18T13:59:50.947Z,19.14
2023-04-18T14:02:17.642Z,19.46
2023-04-18T14:04:44.510Z,18.96
2023-04-18T14:07:11.341Z,18.36
2023-04-18T14:09:37.971Z,18.41
2023-04-18T14:12:05.016Z,17.74
2023-04-18T14:14:32.587Z,18.37
2023-04-18T14:16:59.264Z,18.08
2023-04-18T14:19:27.080Z,18.04
2023-04-18T14:21:53.666Z,17.69
2023-04-18T14:24:20.417Z,17.74
2023-04-18T14:26:48.133Z,17.64
2023-04-18T14:29:15.085Z,17.85
2023-04-18T14:31:42.204Z,17.57
2023-04-18T14:34:09.866Z,17.65
2023-04-18T14:36:36.973Z,17.28
2023-04-18T14:39:03.702Z,17.50
2023-04-18T14:41:30.351Z,17.54
2023-04-18T14:43:56.873Z,17.61
2023-04-18T14:46:23.571Z,17.91
2023-04-18T14:48:51.364Z,17.97
2023-04-18T14:51:18.038Z,18.46
2023-04-18T14:53:44.813Z,17.99
2023-04-18T14:56:11.756Z,18.19
2023-04-18T14:58:38.505Z,17.85
2023-04-18T15:01:05.913Z,18.26
2023-04-18T15:03:33.238Z,18.25
2023-04-18T15:06:00.186Z,18.06
2023-04-18T15:08:32.707Z,18.08
2023-04-18T15:10:59.885Z,17.96
2023-04-18T15:13:26.768Z,17.83
2023-04-18T15:15:54.652Z,17.52
2023-04-18T15:18:21.577Z,17.70
2023-04-18T15:20:48.368Z,17.35
2023-04-18T15:23:15.454Z,17.63
2023-04-18T15:25:44.565Z,17.31
2023-04-18T15:28:14.885Z,17.29
2023-04-18T15:30:41.626Z,17.06
2023-04-18T15:33:08.598Z,17.63
2023-04-18T15:35:35.812Z,17.65
2023-04-18T15:38:02.479Z,17.80
2023-04-18T15:40:29.086Z,17.25
2023-04-18T15:42:57.734Z,17.46
2023-04-18T15:45:24.321Z,17.26
2023-04-18T15:47:51.502Z,17.02
2023-04-18T15:50:18.531Z,17.38
2023-04-18T15:52:45.330Z,17.05
2023-04-18T15:55:13.202Z,17.36
2023-04-18T15:57:40.568Z,17.63
2023-04-18T16:00:16.024Z,17.09
2023-04-18T16:02:46.327Z,16.69
2023-04-18T16:05:15.261Z,17.02
2023-04-18T16:07:42.732Z,17.40
2023-04-18T16:10:11.164Z,17.42
2023-04-18T16:12:39.803Z,17.22
2023-04-18T16:15:08.647Z,17.04
2023-04-18T16:17:38.592Z,16.38
2023-04-18T16:20:06.217Z,16.85
2023-04-18T16:22:33.551Z,16.94
2023-04-18T16:25:00.578Z,16.44
2023-04-18T16:27:28.060Z,16.34
2023-04-18T16:29:54.717Z,15.88
2023-04-18T16:32:21.436Z,15.84
2023-04-18T16:34:48.424Z,15.90
2023-04-18T16:37:15.171Z,15.84
2023-04-18T16:39:41.852Z,16.09
2023-04-18T16:42:08.544Z,15.99
2023-04-18T16:44:35.326Z,16.20
2023-04-18T16:47:01.998Z,15.59
2023-04-18T16:49:28.570Z,15.72
2023-04-18T16:51:55.207Z,15.72
2023-04-18T16:54:21.881Z,15.42
2023-04-18T16:56:48.647Z,15.54
2023-04-18T16:59:15.584Z,15.49
2023-04-18T17:01:42.204Z,15.28
2023-04-18T17:04:09.983Z,15.39
2023-04-18T17:06:36.704Z,15.39
2023-04-18T17:09:06.507Z,15.13
2023-04-18T17:11:38.776Z,15.19
2023-04-18T17:14:06.144Z,15.23
2023-04-18T17:16:34.484Z,14.91
2023-04-18T17:19:01.684Z,15.06
2023-04-18T17:21:28.287Z,15.16
2023-04-18T17:23:56.340Z,14.95
2023-04-18T17:26:25.434Z,14.83
2023-04-18T17:28:52.892Z,14.80
2023-04-18T17:31:19.628Z,14.71
2023-04-18T17:33:48.804Z,14.74
2023-04-18T17:36:15.722Z,14.53
2023-04-18T17:38:48.813Z,14.89
2023-04-18T17:41:16.818Z,14.86
2023-04-18T17:43:45.338Z,14.53
2023-04-18T17:46:13.485Z,14.71
2023-04-18T17:48:41.457Z,14.59
2023-04-18T17:51:09.740Z,14.38
2023-04-18T17:53:36.304Z,14.44
2023-04-18T17:56:03.882Z,14.46
2023-04-18T17:58:31.597Z,14.23
2023-04-18T18:00:58.406Z,14.36
2023-04-18T18:03:25.553Z,14.38
2023-04-18T18:05:54.724Z,14.24
2023-04-18T18:08:21.954Z,14.30
2023-04-18T18:10:48.712Z,14.10
2023-04-18T18:13:15.911Z,14.37
2023-04-18T18:15:42.477Z,14.10
2023-04-18T18:18:09.264Z,14.66
2023-04-18T18:20:36.228Z,14.46
2023-04-18T18:23:03.166Z,14.19
2023-04-18T18:25:31.140Z,14.31
2023-04-18T18:27:58.158Z,14.12
2023-04-18T18:30:24.798Z,14.36
2023-04-18T18:32:53.553Z,14.46
2023-04-18T18:35:20.619Z,14.55
2023-04-18T18:37:47.247Z,14.52
2023-04-18T18:40:13.892Z,14.44
2023-04-18T18:42:41.041Z,14.22
2023-04-18T18:45:10.159Z,14.15
2023-04-18T18:47:39.621Z,14.21
2023-04-18T18:50:07.628Z,14.33
2023-04-18T18:52:35.571Z,14.05
2023-04-18T18:55:03.176Z,14.36
2023-04-18T18:57:29.765Z,14.13
2023-04-18T18:59:56.334Z,14.37
2023-04-18T19:02:23.437Z,14.32
2023-04-18T19:04:50.479Z,14.37
2023-04-18T19:07:18.481Z,14.07
2023-04-18T19:09:46.398Z,14.08
2023-04-18T19:12:13.023Z,14.34
2023-04-18T19:14:41.296Z,14.03
2023-04-18T19:17:09.267Z,14.04
2023-04-18T19:19:37.062Z,14.01
2023-04-18T19:22:03.761Z,14.32
2023-04-18T19:24:31.823Z,13.89
2023-04-18T19:26:59.979Z,14.11
2023-04-18T19:29:26.676Z,13.88
2023-04-18T19:31:53.931Z,13.93
2023-04-18T19:34:22.312Z,14.03
2023-04-18T19:36:49.187Z,13.75
2023-04-18T19:39:16.972Z,13.99
2023-04-18T19:41:43.913Z,13.97
2023-04-18T19:44:10.465Z,13.99
2023-04-18T19:46:39.358Z,13.78
2023-04-18T19:49:06.309Z,13.91
2023-04-18T19:51:33.276Z,13.98
2023-04-18T19:53:59.887Z,13.91
2023-04-18T19:56:26.540Z,14.16
2023-04-18T19:58:53.248Z,13.92
2023-04-18T20:01:21.000Z,14.11
2023-04-18T20:03:48.467Z,13.73
2023-04-18T20:06:17.561Z,14.01
2023-04-18T20:08:49.622Z,13.88
2023-04-18T20:11:16.198Z,14.13
2023-04-18T20:13:43.187Z,14.11
2023-04-18T20:16:12.143Z,14.04
2023-04-18T20:18:41.916Z,13.75
2023-04-18T20:21:09.516Z,14.00
2023-04-18T20:23:38.760Z,14.01
2023-04-18T20:26:05.474Z,13.74
2023-04-18T20:28:32.276Z,14.02
2023-04-18T20:31:00.361Z,13.80
2023-04-18T20:33:29.181Z,13.93
2023-04-18T20:35:56.027Z,14.03
2023-04-18T20:38:29.313Z,14.06
2023-04-18T20:40:58.172Z,14.06
2023-04-18T20:43:24.852Z,14.01
2023-04-18T20:45:53.872Z,13.80
2023-04-18T20:48:23.301Z,13.52
2023-04-18T20:50:52.917Z,13.50
2023-04-18T20:53:21.321Z,13.37
2023-04-18T20:55:51.227Z,13.78
2023-04-18T20:58:18.681Z,13.83
2023-04-18T21:00:45.304Z,13.94
2023-04-18T21:03:14.965Z,14.06
2023-04-18T21:05:43.349Z,13.65
2023-04-18T21:08:11.165Z,13.72
2023-04-18T21:10:38.047Z,13.85
2023-04-18T21:13:04.648Z,13.84
2023-04-18T21:15:31.603Z,14.04
2023-04-18T21:17:58.262Z,14.22
2023-04-18T21:20:25.014Z,14.00
2023-04-18T21:22:52.033Z,13.85
2023-04-18T21:25:23.424Z,13.83
2023-04-18T21:27:50.889Z,13.59
2023-04-18T21:30:17.990Z,13.43
2023-04-18T21:32:46.138Z,13.27
2023-04-18T21:35:14.221Z,13.29
2023-04-18T21:37:40.720Z,13.13
2023-04-18T21:40:07.914Z,13.20
2023-04-18T21:42:37.527Z,13.08
2023-04-18T21:45:06.405Z,13.03
2023-04-18T21:47:33.126Z,13.17
2023-04-18T21:49:59.803Z,13.12
2023-04-18T21:52:26.365Z,12.77
2023-04-18T21:54:53.890Z,13.35
2023-04-18T21:57:20.484Z,13.31
2023-04-18T21:59:48.089Z,13.49
2023-04-18T22:02:14.754Z,13.43
2023-04-18T22:04:42.786Z,13.43
2023-04-18T22:07:11.427Z,13.72
2023-04-18T22:09:38.137Z,13.30
2023-04-18T22:12:05.643Z,13.70
2023-04-18T22:14:35.132Z,13.41
2023-04-18T22:17:03.284Z,13.59
2023-04-18T22:19:31.277Z,13.71
2023-04-18T22:21:58.903Z,13.34
2023-04-18T22:24:28.330Z,13.79
2023-04-18T22:26:55.006Z,13.63
2023-04-18T22:29:22.724Z,13.72
2023-04-18T22:31:49.231Z,13.79
2023-04-18T22:34:16.068Z,13.60
2023-04-18T22:36:43.801Z,13.54
2023-04-18T22:39:12.446Z,13.58
2023-04-18T22:41:39.058Z,13.36
2023-04-18T22:44:09.206Z,13.43
2023-04-18T22:46:39.279Z,13.51
2023-04-18T22:49:06.178Z,13.42
2023-04-18T22:51:32.972Z,13.59
2023-04-18T22:53:59.644Z,13.56
2023-04-18T22:56:26.521Z,13.59
2023-04-18T22:58:53.357Z,13.58
2023-04-18T23:01:19.985Z,13.84
2023-04-18T23:03:47.971Z,13.71
2023-04-18T23:06:14.722Z,13.61
2023-04-18T23:08:41.631Z,13.67
2023-04-18T23:11:10.630Z,13.83
2023-04-18T23:13:37.404Z,13.92
2023-04-18T23:16:06.044Z,13.72
2023-04-18T23:18:33.032Z,13.67
2023-04-18T23:21:01.423Z,13.50
2023-04-18T23:23:28.370Z,13.72
2023-04-18T23:25:55.264Z,13.38
2023-04-18T23:28:21.852Z,13.58
2023-04-18T23:30:50.153Z,13.76
2023-04-18T23:33:17.101Z,13.81
2023-04-18T23:35:43.723Z,13.81
2023-04-18T23:38:10.296Z,13.72
2023-04-18T23:40:36.820Z,13.90
2023-04-18T23:43:03.495Z,13.78
2023-04-18T23:45:30.166Z,14.08
2023-04-18T23:47:57.348Z,13.93
2023-04-18T23:50:24.533Z,13.94
2023-04-18T23:52:51.390Z,13.69
2023-04-18T23:55:17.996Z,13.64
2023-04-18T23:57:44.700Z,13.76
